sensor_id;sensor_type;location;lat;lon;timestamp;pressure;altitude;pressure_sealevel;temperature;humidity
30554;BME280;17335;50.720;7.452;2023-01-25T00:00:18;101218.94;;;0.32;100.00
30554;BME280;17335;50.720;7.452;2023-01-25T00:02:44;101218.22;;;0.26;100.00
30554;BME280;17335;50.720;7.452;2023-01-25T00:05:11;101215.53;;;0.27;100.00
30554;BME280;17335;50.720;7.452;2023-01-25T00:07:37;101208.53;;;0.26;100.00
30554;BME280;17335;50.720;7.452;2023-01-25T00:10:04;101212.94;;;0.26;100.00
30554;BME280;17335;50.720;7.452;2023-01-25T00:12:30;101206.88;;;0.21;100.00
30554;BME280;17335;50.720;7.452;2023-01-25T00:14:57;101210.38;;;0.23;100.00
30554;BME280;17335;50.720;7.452;2023-01-25T00:17:23;101204.09;;;0.28;100.00
30554;BME280;17335;50.720;7.452;2023-01-25T00:19:50;101202.38;;;0.26;100.00
30554;BME280;17335;50.720;7.452;2023-01-25T00:22:16;101211.13;;;0.29;100.00
30554;BME280;17335;50.720;7.452;2023-01-25T00:24:42;101203.31;;;0.23;100.00
30554;BME280;17335;50.720;7.452;2023-01-25T00:27:09;101203.13;;;0.31;100.00
30554;BME280;17335;50.720;7.452;2023-01-25T00:35:43;101199.00;;;0.19;100.00
30554;BME280;17335;50.720;7.452;2023-01-25T00:38:27;101198.91;;;0.22;100.00
30554;BME280;17335;50.720;7.452;2023-01-25T00:40:56;101198.94;;;0.21;100.00
30554;BME280;17335;50.720;7.452;2023-01-25T00:43:22;101197.97;;;0.26;100.00
30554;BME280;17335;50.720;7.452;2023-01-25T00:45:49;101191.91;;;0.21;100.00
30554;BME280;17335;50.720;7.452;2023-01-25T00:48:15;101186.47;;;0.27;100.00
30554;BME280;17335;50.720;7.452;2023-01-25T00:50:42;101189.22;;;0.24;100.00
30554;BME280;17335;50.720;7.452;2023-01-25T00:53:08;101182.22;;;0.22;100.00
30554;BME280;17335;50.720;7.452;2023-01-25T00:55:35;101186.38;;;0.32;100.00
30554;BME280;17335;50.720;7.452;2023-01-25T00:58:01;101184.59;;;0.32;100.00
30554;BME280;17335;50.720;7.452;2023-01-25T01:00:27;101173.25;;;0.29;100.00
30554;BME280;17335;50.720;7.452;2023-01-25T01:02:54;101174.97;;;0.31;100.00
30554;BME280;17335;50.720;7.452;2023-01-25T01:05:20;101181.28;;;0.24;100.00
30554;BME280;17335;50.720;7.452;2023-01-25T01:07:48;101173.25;;;0.29;100.00
30554;BME280;17335;50.720;7.452;2023-01-25T01:10:17;101176.81;;;0.28;100.00
30554;BME280;17335;50.720;7.452;2023-01-25T01:12:44;101188.28;;;0.25;100.00
30554;BME280;17335;50.720;7.452;2023-01-25T01:15:10;101180.38;;;0.25;100.00
30554;BME280;17335;50.720;7.452;2023-01-25T01:17:37;101178.59;;;0.26;100.00
30554;BME280;17335;50.720;7.452;2023-01-25T01:20:03;101184.81;;;0.23;100.00
30554;BME280;17335;50.720;7.452;2023-01-25T01:22:30;101170.09;;;0.13;100.00
30554;BME280;17335;50.720;7.452;2023-01-25T01:24:56;101179.31;;;0.32;100.00
30554;BME280;17335;50.720;7.452;2023-01-25T01:27:22;101172.50;;;0.22;100.00
30554;BME280;17335;50.720;7.452;2023-01-25T01:29:49;101171.84;;;0.14;100.00
30554;BME280;17335;50.720;7.452;2023-01-25T01:32:15;101173.50;;;0.18;100.00
30554;BME280;17335;50.720;7.452;2023-01-25T01:34:42;101170.84;;;0.18;100.00
30554;BME280;17335;50.720;7.452;2023-01-25T01:37:09;101168.28;;;0.13;100.00
30554;BME280;17335;50.720;7.452;2023-01-25T01:39:36;101166.16;;;0.31;100.00
30554;BME280;17335;50.720;7.452;2023-01-25T01:42:02;101170.97;;;0.12;100.00
30554;BME280;17335;50.720;7.452;2023-01-25T01:47:27;101168.34;;;0.10;100.00
30554;BME280;17335;50.720;7.452;2023-01-25T01:50:03;101167.09;;;-0.12;100.00
30554;BME280;17335;50.720;7.452;2023-01-25T01:52:35;101165.31;;;-0.10;100.00
30554;BME280;17335;50.720;7.452;2023-01-25T01:55:12;101173.34;;;-0.16;100.00
30554;BME280;17335;50.720;7.452;2023-01-25T01:57:49;101172.25;;;-0.06;100.00
30554;BME280;17335;50.720;7.452;2023-01-25T02:02:45;101171.47;;;-0.11;100.00
30554;BME280;17335;50.720;7.452;2023-01-25T02:08:09;101170.63;;;-0.12;100.00
30554;BME280;17335;50.720;7.452;2023-01-25T02:10:38;101165.16;;;-0.04;100.00
30554;BME280;17335;50.720;7.452;2023-01-25T02:13:06;101165.44;;;-0.18;100.00
30554;BME280;17335;50.720;7.452;2023-01-25T02:15:39;101170.66;;;-0.15;100.00
30554;BME280;17335;50.720;7.452;2023-01-25T02:18:08;101164.41;;;-0.11;100.00
30554;BME280;17335;50.720;7.452;2023-01-25T02:20:44;101164.31;;;-0.06;100.00
30554;BME280;17335;50.720;7.452;2023-01-25T02:25:45;101159.75;;;0.02;100.00
30554;BME280;17335;50.720;7.452;2023-01-25T02:28:25;101164.25;;;-0.02;100.00
30554;BME280;17335;50.720;7.452;2023-01-25T02:30:53;101156.19;;;0.03;100.00
30554;BME280;17335;50.720;7.452;2023-01-25T02:33:25;101156.16;;;0.05;100.00
30554;BME280;17335;50.720;7.452;2023-01-25T02:36:28;101156.31;;;-0.02;100.00
30554;BME280;17335;50.720;7.452;2023-01-25T02:39:00;101151.38;;;0.22;100.00
30554;BME280;17335;50.720;7.452;2023-01-25T02:43:58;101154.44;;;0.04;100.00
30554;BME280;17335;50.720;7.452;2023-01-25T02:46:31;101143.97;;;-0.01;100.00
30554;BME280;17335;50.720;7.452;2023-01-25T02:48:59;101149.31;;;-0.04;100.00
30554;BME280;17335;50.720;7.452;2023-01-25T02:51:28;101157.19;;;-0.01;100.00
30554;BME280;17335;50.720;7.452;2023-01-25T02:53:55;101150.09;;;0.01;100.00
30554;BME280;17335;50.720;7.452;2023-01-25T02:56:23;101157.91;;;0.06;100.00
30554;BME280;17335;50.720;7.452;2023-01-25T02:58:49;101153.47;;;0.08;100.00
30554;BME280;17335;50.720;7.452;2023-01-25T03:01:16;101149.09;;;0.05;100.00
30554;BME280;17335;50.720;7.452;2023-01-25T03:03:43;101146.38;;;0.10;100.00
30554;BME280;17335;50.720;7.452;2023-01-25T03:06:10;101147.31;;;0.07;100.00
30554;BME280;17335;50.720;7.452;2023-01-25T03:08:36;101149.00;;;0.10;100.00
30554;BME280;17335;50.720;7.452;2023-01-25T03:11:05;101147.50;;;-0.02;100.00
30554;BME280;17335;50.720;7.452;2023-01-25T03:13:33;101139.56;;;-0.01;100.00
30554;BME280;17335;50.720;7.452;2023-01-25T03:16:02;101141.31;;;0.01;100.00
30554;BME280;17335;50.720;7.452;2023-01-25T03:18:29;101142.38;;;-0.08;100.00
30554;BME280;17335;50.720;7.452;2023-01-25T03:21:03;101149.22;;;0.01;100.00
30554;BME280;17335;50.720;7.452;2023-01-25T03:23:30;101139.75;;;-0.10;100.00
30554;BME280;17335;50.720;7.452;2023-01-25T03:26:07;101140.53;;;-0.05;100.00
30554;BME280;17335;50.720;7.452;2023-01-25T03:28:33;101141.47;;;-0.09;100.00
30554;BME280;17335;50.720;7.452;2023-01-25T03:31:00;101136.25;;;-0.10;100.00
30554;BME280;17335;50.720;7.452;2023-01-25T03:33:27;101129.16;;;-0.07;100.00
30554;BME280;17335;50.720;7.452;2023-01-25T03:35:54;101133.69;;;-0.13;100.00
30554;BME280;17335;50.720;7.452;2023-01-25T03:38:21;101133.78;;;-0.18;100.00
30554;BME280;17335;50.720;7.452;2023-01-25T03:40:48;101135.53;;;-0.17;100.00
30554;BME280;17335;50.720;7.452;2023-01-25T03:43:15;101132.28;;;-0.31;100.00
30554;BME280;17335;50.720;7.452;2023-01-25T03:45:41;101128.72;;;-0.29;100.00
30554;BME280;17335;50.720;7.452;2023-01-25T03:48:08;101121.47;;;-0.19;100.00
30554;BME280;17335;50.720;7.452;2023-01-25T03:50:35;101121.31;;;-0.11;100.00
30554;BME280;17335;50.720;7.452;2023-01-25T03:53:01;101119.72;;;-0.18;100.00
30554;BME280;17335;50.720;7.452;2023-01-25T03:55:33;101118.97;;;-0.25;100.00
30554;BME280;17335;50.720;7.452;2023-01-25T03:58:00;101122.44;;;-0.23;100.00
30554;BME280;17335;50.720;7.452;2023-01-25T04:00:26;101115.41;;;-0.24;100.00
30554;BME280;17335;50.720;7.452;2023-01-25T04:02:53;101113.69;;;-0.25;100.00
30554;BME280;17335;50.720;7.452;2023-01-25T04:05:19;101114.63;;;-0.29;100.00
30554;BME280;17335;50.720;7.452;2023-01-25T04:07:46;101109.41;;;-0.31;100.00
30554;BME280;17335;50.720;7.452;2023-01-25T04:10:12;101112.78;;;-0.24;100.00
30554;BME280;17335;50.720;7.452;2023-01-25T04:12:38;101104.94;;;-0.27;100.00
30554;BME280;17335;50.720;7.452;2023-01-25T04:15:05;101107.69;;;-0.33;100.00
30554;BME280;17335;50.720;7.452;2023-01-25T04:17:32;101101.69;;;-0.40;100.00
30554;BME280;17335;50.720;7.452;2023-01-25T04:19:59;101102.72;;;-0.47;100.00
30554;BME280;17335;50.720;7.452;2023-01-25T04:22:25;101089.50;;;-0.46;100.00
30554;BME280;17335;50.720;7.452;2023-01-25T04:24:52;101099.28;;;-0.51;100.00
30554;BME280;17335;50.720;7.452;2023-01-25T04:27:18;101093.97;;;-0.49;100.00
30554;BME280;17335;50.720;7.452;2023-01-25T04:29:45;101090.31;;;-0.44;100.00
30554;BME280;17335;50.720;7.452;2023-01-25T04:32:11;101094.53;;;-0.35;100.00
30554;BME280;17335;50.720;7.452;2023-01-25T04:34:38;101089.19;;;-0.32;100.00
30554;BME280;17335;50.720;7.452;2023-01-25T04:37:05;101091.72;;;-0.26;100.00
30554;BME280;17335;50.720;7.452;2023-01-25T04:39:31;101085.59;;;-0.29;100.00
30554;BME280;17335;50.720;7.452;2023-01-25T04:41:58;101083.91;;;-0.32;100.00
30554;BME280;17335;50.720;7.452;2023-01-25T04:44:24;101083.06;;;-0.32;100.00
30554;BME280;17335;50.720;7.452;2023-01-25T04:46:51;101076.13;;;-0.38;100.00
30554;BME280;17335;50.720;7.452;2023-01-25T04:49:17;101078.91;;;-0.44;100.00
30554;BME280;17335;50.720;7.452;2023-01-25T04:51:44;101085.84;;;-0.40;100.00
30554;BME280;17335;50.720;7.452;2023-01-25T04:54:10;101083.94;;;-0.33;100.00
30554;BME280;17335;50.720;7.452;2023-01-25T04:56:37;101076.88;;;-0.33;100.00
30554;BME280;17335;50.720;7.452;2023-01-25T04:59:04;101072.06;;;-0.53;100.00
30554;BME280;17335;50.720;7.452;2023-01-25T05:01:30;101068.63;;;-0.58;100.00
30554;BME280;17335;50.720;7.452;2023-01-25T05:03:58;101071.13;;;-0.52;100.00
30554;BME280;17335;50.720;7.452;2023-01-25T05:06:25;101079.97;;;-0.53;100.00
30554;BME280;17335;50.720;7.452;2023-01-25T05:08:51;101070.22;;;-0.49;100.00
30554;BME280;17335;50.720;7.452;2023-01-25T05:11:18;101077.19;;;-0.47;100.00
30554;BME280;17335;50.720;7.452;2023-01-25T05:13:44;101070.31;;;-0.54;100.00
30554;BME280;17335;50.720;7.452;2023-01-25T05:16:11;101062.31;;;-0.49;100.00
30554;BME280;17335;50.720;7.452;2023-01-25T05:18:37;101063.22;;;-0.52;100.00
30554;BME280;17335;50.720;7.452;2023-01-25T05:21:14;101065.88;;;-0.53;100.00
30554;BME280;17335;50.720;7.452;2023-01-25T05:24:00;101063.22;;;-0.52;100.00
30554;BME280;17335;50.720;7.452;2023-01-25T05:26:26;101056.78;;;-0.39;100.00
30554;BME280;17335;50.720;7.452;2023-01-25T05:29:11;101059.50;;;-0.42;100.00
30554;BME280;17335;50.720;7.452;2023-01-25T05:31:38;101057.63;;;-0.36;100.00
30554;BME280;17335;50.720;7.452;2023-01-25T05:34:05;101056.81;;;-0.40;100.00
30554;BME280;17335;50.720;7.452;2023-01-25T05:36:31;101061.22;;;-0.41;100.00
30554;BME280;17335;50.720;7.452;2023-01-25T05:38:57;101054.09;;;-0.35;100.00
30554;BME280;17335;50.720;7.452;2023-01-25T05:41:24;101044.56;;;-0.43;100.00
30554;BME280;17335;50.720;7.452;2023-01-25T05:43:50;101045.19;;;-0.31;100.00
30554;BME280;17335;50.720;7.452;2023-01-25T05:46:17;101048.13;;;-0.45;100.00
30554;BME280;17335;50.720;7.452;2023-01-25T05:48:46;101054.47;;;-0.54;100.00
30554;BME280;17335;50.720;7.452;2023-01-25T05:51:13;101043.81;;;-0.48;100.00
30554;BME280;17335;50.720;7.452;2023-01-25T05:53:40;101042.06;;;-0.49;100.00
30554;BME280;17335;50.720;7.452;2023-01-25T05:56:07;101050.78;;;-0.47;100.00
30554;BME280;17335;50.720;7.452;2023-01-25T05:58:34;101047.22;;;-0.43;100.00
30554;BME280;17335;50.720;7.452;2023-01-25T06:01:01;101047.97;;;-0.38;100.00
30554;BME280;17335;50.720;7.452;2023-01-25T06:03:28;101042.59;;;-0.33;100.00
30554;BME280;17335;50.720;7.452;2023-01-25T06:06:00;101039.13;;;-0.35;100.00
30554;BME280;17335;50.720;7.452;2023-01-25T06:08:30;101044.22;;;-0.26;100.00
30554;BME280;17335;50.720;7.452;2023-01-25T06:10:57;101041.66;;;-0.30;100.00
30554;BME280;17335;50.720;7.452;2023-01-25T06:13:23;101030.16;;;-0.28;100.00
30554;BME280;17335;50.720;7.452;2023-01-25T06:15:55;101033.50;;;-0.20;100.00
30554;BME280;17335;50.720;7.452;2023-01-25T06:18:22;101037.06;;;-0.21;100.00
30554;BME280;17335;50.720;7.452;2023-01-25T06:20:50;101038.00;;;-0.25;100.00
30554;BME280;17335;50.720;7.452;2023-01-25T06:23:16;101035.47;;;-0.29;100.00
30554;BME280;17335;50.720;7.452;2023-01-25T06:25:43;101034.69;;;-0.34;100.00
30554;BME280;17335;50.720;7.452;2023-01-25T06:28:10;101020.75;;;-0.40;100.00
30554;BME280;17335;50.720;7.452;2023-01-25T06:30:36;101025.22;;;-0.43;100.00
30554;BME280;17335;50.720;7.452;2023-01-25T06:33:03;101030.44;;;-0.40;100.00
30554;BME280;17335;50.720;7.452;2023-01-25T06:35:33;101034.84;;;-0.41;100.00
30554;BME280;17335;50.720;7.452;2023-01-25T06:38:00;101024.34;;;-0.44;100.00
30554;BME280;17335;50.720;7.452;2023-01-25T06:40:27;101021.88;;;-0.50;100.00
30554;BME280;17335;50.720;7.452;2023-01-25T06:42:54;101020.94;;;-0.49;100.00
30554;BME280;17335;50.720;7.452;2023-01-25T06:45:20;101023.44;;;-0.41;100.00
30554;BME280;17335;50.720;7.452;2023-01-25T06:47:48;101020.00;;;-0.45;100.00
30554;BME280;17335;50.720;7.452;2023-01-25T06:50:15;101021.69;;;-0.42;100.00
30554;BME280;17335;50.720;7.452;2023-01-25T06:52:42;101026.06;;;-0.41;100.00
30554;BME280;17335;50.720;7.452;2023-01-25T06:55:08;101027.03;;;-0.45;100.00
30554;BME280;17335;50.720;7.452;2023-01-25T06:57:38;101028.75;;;-0.43;100.00
30554;BME280;17335;50.720;7.452;2023-01-25T07:00:06;101020.69;;;-0.36;100.00
30554;BME280;17335;50.720;7.452;2023-01-25T07:02:32;101011.06;;;-0.39;100.00
30554;BME280;17335;50.720;7.452;2023-01-25T07:04:59;101025.09;;;-0.37;100.00
30554;BME280;17335;50.720;7.452;2023-01-25T07:07:25;101026.00;;;-0.40;100.00
30554;BME280;17335;50.720;7.452;2023-01-25T07:09:52;101028.81;;;-0.46;100.00
30554;BME280;17335;50.720;7.452;2023-01-25T07:12:19;101022.72;;;-0.49;100.00
30554;BME280;17335;50.720;7.452;2023-01-25T07:14:45;101031.66;;;-0.55;100.00
30554;BME280;17335;50.720;7.452;2023-01-25T07:17:14;101027.31;;;-0.59;100.00
30554;BME280;17335;50.720;7.452;2023-01-25T07:19:40;101035.06;;;-0.50;100.00
30554;BME280;17335;50.720;7.452;2023-01-25T07:22:07;101027.09;;;-0.48;100.00
30554;BME280;17335;50.720;7.452;2023-01-25T07:24:34;101027.91;;;-0.45;100.00
30554;BME280;17335;50.720;7.452;2023-01-25T07:27:01;101025.09;;;-0.37;100.00
30554;BME280;17335;50.720;7.452;2023-01-25T07:29:27;101025.06;;;-0.35;100.00
30554;BME280;17335;50.720;7.452;2023-01-25T07:31:54;101020.63;;;-0.33;100.00
30554;BME280;17335;50.720;7.452;2023-01-25T07:34:20;101025.78;;;-0.27;100.00
30554;BME280;17335;50.720;7.452;2023-01-25T07:36:47;101024.97;;;-0.31;100.00
30554;BME280;17335;50.720;7.452;2023-01-25T07:39:13;101031.03;;;-0.27;100.00
30554;BME280;17335;50.720;7.452;2023-01-25T07:41:40;101025.66;;;-0.24;100.00
30554;BME280;17335;50.720;7.452;2023-01-25T07:44:06;101025.72;;;-0.26;100.00
30554;BME280;17335;50.720;7.452;2023-01-25T07:46:33;101027.41;;;-0.23;100.00
30554;BME280;17335;50.720;7.452;2023-01-25T07:48:59;101029.00;;;-0.16;100.00
30554;BME280;17335;50.720;7.452;2023-01-25T07:51:26;101035.44;;;-0.28;100.00
30554;BME280;17335;50.720;7.452;2023-01-25T07:53:57;101032.19;;;-0.39;100.00
30554;BME280;17335;50.720;7.452;2023-01-25T07:56:27;101033.19;;;-0.45;100.00
30554;BME280;17335;50.720;7.452;2023-01-25T07:58:56;101030.47;;;-0.42;100.00
30554;BME280;17335;50.720;7.452;2023-01-25T08:01:25;101035.97;;;-0.52;100.00
30554;BME280;17335;50.720;7.452;2023-01-25T08:03:53;101025.44;;;-0.52;100.00
30554;BME280;17335;50.720;7.452;2023-01-25T08:06:28;101029.50;;;-0.38;100.00
30554;BME280;17335;50.720;7.452;2023-01-25T08:09:07;101031.22;;;-0.36;100.00
30554;BME280;17335;50.720;7.452;2023-01-25T08:11:34;101032.97;;;-0.35;100.00
30554;BME280;17335;50.720;7.452;2023-01-25T08:14:01;101028.56;;;-0.35;100.00
30554;BME280;17335;50.720;7.452;2023-01-25T08:16:29;101026.69;;;-0.30;100.00
30554;BME280;17335;50.720;7.452;2023-01-25T08:18:58;101032.31;;;-0.45;100.00
30554;BME280;17335;50.720;7.452;2023-01-25T08:21:26;101026.91;;;-0.39;100.00
30554;BME280;17335;50.720;7.452;2023-01-25T08:24:00;101035.56;;;-0.32;100.00
30554;BME280;17335;50.720;7.452;2023-01-25T08:26:27;101026.06;;;-0.41;100.00
30554;BME280;17335;50.720;7.452;2023-01-25T08:28:54;101026.94;;;-0.41;100.00
30554;BME280;17335;50.720;7.452;2023-01-25T08:31:23;101026.00;;;-0.40;100.00
30554;BME280;17335;50.720;7.452;2023-01-25T08:33:52;101023.28;;;-0.35;100.00
30554;BME280;17335;50.720;7.452;2023-01-25T08:36:19;101024.09;;;-0.33;100.00
30554;BME280;17335;50.720;7.452;2023-01-25T08:38:46;101024.03;;;-0.28;100.00
30554;BME280;17335;50.720;7.452;2023-01-25T08:41:16;101024.06;;;-0.31;100.00
30554;BME280;17335;50.720;7.452;2023-01-25T08:43:45;101019.47;;;-0.22;100.00
30554;BME280;17335;50.720;7.452;2023-01-25T08:46:13;101009.72;;;-0.18;100.00
30554;BME280;17335;50.720;7.452;2023-01-25T08:48:40;101020.19;;;-0.15;100.00
30554;BME280;17335;50.720;7.452;2023-01-25T08:51:08;101009.63;;;-0.13;100.00
30554;BME280;17335;50.720;7.452;2023-01-25T08:53:36;101011.16;;;-0.05;100.00
30554;BME280;17335;50.720;7.452;2023-01-25T08:56:05;101005.88;;;-0.05;100.00
30554;BME280;17335;50.720;7.452;2023-01-25T08:58:32;101002.19;;;0.03;100.00
30554;BME280;17335;50.720;7.452;2023-01-25T09:01:04;101002.13;;;0.06;100.00
30554;BME280;17335;50.720;7.452;2023-01-25T09:03:34;100994.50;;;0.29;100.00
30554;BME280;17335;50.720;7.452;2023-01-25T09:06:01;100989.84;;;0.39;100.00
30554;BME280;17335;50.720;7.452;2023-01-25T09:08:28;100986.28;;;0.40;100.00
30554;BME280;17335;50.720;7.452;2023-01-25T09:10:54;100996.53;;;0.18;100.00
30554;BME280;17335;50.720;7.452;2023-01-25T09:13:21;100992.19;;;0.15;100.00
30554;BME280;17335;50.720;7.452;2023-01-25T09:15:47;100980.94;;;0.09;100.00
30554;BME280;17335;50.720;7.452;2023-01-25T09:18:13;100991.31;;;0.15;100.00
30554;BME280;17335;50.720;7.452;2023-01-25T09:20:40;100990.75;;;0.02;100.00
30554;BME280;17335;50.720;7.452;2023-01-25T09:23:08;100980.88;;;0.10;100.00
30554;BME280;17335;50.720;7.452;2023-01-25T09:25:35;100980.75;;;0.15;100.00
30554;BME280;17335;50.720;7.452;2023-01-25T09:28:01;100977.28;;;0.13;100.00
30554;BME280;17335;50.720;7.452;2023-01-25T09:30:37;100983.03;;;0.29;100.00
30554;BME280;17335;50.720;7.452;2023-01-25T09:33:15;100985.44;;;0.40;100.00
30554;BME280;17335;50.720;7.452;2023-01-25T09:35:46;100974.50;;;0.19;100.00
30554;BME280;17335;50.720;7.452;2023-01-25T09:38:13;100972.63;;;-0.12;100.00
30554;BME280;17335;50.720;7.452;2023-01-25T09:43:36;100970.59;;;-0.40;100.00
30554;BME280;17335;50.720;7.452;2023-01-25T09:46:18;100968.72;;;-0.34;100.00
30554;BME280;17335;50.720;7.452;2023-01-25T09:49:02;100973.31;;;-0.41;100.00
30554;BME280;17335;50.720;7.452;2023-01-25T09:51:52;100966.47;;;-0.50;100.00
30554;BME280;17335;50.720;7.452;2023-01-25T09:54:22;100960.97;;;-0.41;100.00
30554;BME280;17335;50.720;7.452;2023-01-25T09:56:50;100957.56;;;-0.46;100.00
30554;BME280;17335;50.720;7.452;2023-01-25T09:59:20;100959.56;;;-0.57;100.00
30554;BME280;17335;50.720;7.452;2023-01-25T10:04:41;100948.53;;;-0.35;100.00
30554;BME280;17335;50.720;7.452;2023-01-25T10:07:18;100945.88;;;-0.34;100.00
30554;BME280;17335;50.720;7.452;2023-01-25T10:12:20;100939.88;;;-0.41;100.00
30554;BME280;17335;50.720;7.452;2023-01-25T10:14:47;100945.72;;;-0.29;100.00
30554;BME280;17335;50.720;7.452;2023-01-25T10:17:20;100942.91;;;-0.20;100.00
30554;BME280;17335;50.720;7.452;2023-01-25T10:22:27;100937.34;;;-0.09;100.00
30554;BME280;17335;50.720;7.452;2023-01-25T10:25:33;100926.06;;;-0.16;100.00
30554;BME280;17335;50.720;7.452;2023-01-25T10:28:26;100929.44;;;-0.09;100.00
30554;BME280;17335;50.720;7.452;2023-01-25T10:31:01;100925.09;;;-0.12;100.00
30554;BME280;17335;50.720;7.452;2023-01-25T10:33:32;100919.66;;;-0.06;100.00
30554;BME280;17335;50.720;7.452;2023-01-25T10:36:03;100924.53;;;0.10;100.00
30554;BME280;17335;50.720;7.452;2023-01-25T10:38:37;100919.19;;;0.13;100.00
30554;BME280;17335;50.720;7.452;2023-01-25T10:43:35;100904.34;;;0.09;100.00
30554;BME280;17335;50.720;7.452;2023-01-25T10:46:01;100902.91;;;-0.05;100.00
30554;BME280;17335;50.720;7.452;2023-01-25T10:48:31;100903.19;;;-0.15;100.00
30554;BME280;17335;50.720;7.452;2023-01-25T10:50:59;100897.28;;;-0.25;100.00
30554;BME280;17335;50.720;7.452;2023-01-25T10:58:30;100894.31;;;-0.49;100.00
30554;BME280;17335;50.720;7.452;2023-01-25T11:00:57;100887.91;;;-0.39;100.00
30554;BME280;17335;50.720;7.452;2023-01-25T11:03:33;100879.72;;;-0.28;100.00
30554;BME280;17335;50.720;7.452;2023-01-25T11:06:01;100878.41;;;-0.10;100.00
30554;BME280;17335;50.720;7.452;2023-01-25T11:08:39;100870.28;;;-0.02;100.00
30554;BME280;17335;50.720;7.452;2023-01-25T11:11:25;100865.63;;;0.08;100.00
30554;BME280;17335;50.720;7.452;2023-01-25T11:13:56;100866.03;;;0.25;100.00
30554;BME280;17335;50.720;7.452;2023-01-25T11:16:39;100851.00;;;0.27;100.00
30554;BME280;17335;50.720;7.452;2023-01-25T11:19:31;100856.25;;;0.29;100.00
30554;BME280;17335;50.720;7.452;2023-01-25T11:21:59;100851.84;;;0.29;100.00
30554;BME280;17335;50.720;7.452;2023-01-25T11:24:28;100848.91;;;0.09;100.00
30554;BME280;17335;50.720;7.452;2023-01-25T11:29:37;100838.34;;;0.09;100.00
30554;BME280;17335;50.720;7.452;2023-01-25T11:32:13;100836.13;;;-0.08;100.00
30554;BME280;17335;50.720;7.452;2023-01-25T11:34:41;100838.63;;;-0.04;100.00
30554;BME280;17335;50.720;7.452;2023-01-25T11:48:23;100818.50;;;0.25;100.00
30554;BME280;17335;50.720;7.452;2023-01-25T12:10:36;100793.25;;;0.15;100.00
30554;BME280;17335;50.720;7.452;2023-01-25T12:23:29;100751.63;;;-0.07;100.00
30554;BME280;17335;50.720;7.452;2023-01-25T12:26:18;100744.53;;;-0.05;100.00
30554;BME280;17335;50.720;7.452;2023-01-25T12:31:39;100721.94;;;0.15;100.00
30554;BME280;17335;50.720;7.452;2023-01-25T12:34:21;100714.75;;;0.20;100.00
30554;BME280;17335;50.720;7.452;2023-01-25T12:36:50;100712.84;;;0.25;100.00
30554;BME280;17335;50.720;7.452;2023-01-25T12:39:32;100707.78;;;0.19;100.00
30554;BME280;17335;50.720;7.452;2023-01-25T12:42:13;100700.63;;;0.23;100.00
30554;BME280;17335;50.720;7.452;2023-01-25T12:44:45;100704.03;;;0.26;100.00
30554;BME280;17335;50.720;7.452;2023-01-25T12:47:27;100697.00;;;0.25;100.00
30554;BME280;17335;50.720;7.452;2023-01-25T12:50:22;100695.38;;;0.21;100.00
30554;BME280;17335;50.720;7.452;2023-01-25T12:52:54;100690.00;;;0.24;100.00
30554;BME280;17335;50.720;7.452;2023-01-25T12:55:23;100678.38;;;0.30;100.00
30554;BME280;17335;50.720;7.452;2023-01-25T13:03:20;100666.09;;;0.57;100.00
30554;BME280;17335;50.720;7.452;2023-01-25T13:08:56;100642.19;;;0.60;100.00
30554;BME280;17335;50.720;7.452;2023-01-25T13:16:54;100630.19;;;0.22;100.00
30554;BME280;17335;50.720;7.452;2023-01-25T13:22:02;100621.34;;;0.24;100.00
30554;BME280;17335;50.720;7.452;2023-01-25T13:24:31;100613.56;;;0.20;100.00
30554;BME280;17335;50.720;7.452;2023-01-25T13:27:03;100615.84;;;0.30;100.00
30554;BME280;17335;50.720;7.452;2023-01-25T13:34:59;100612.00;;;0.41;100.00
30554;BME280;17335;50.720;7.452;2023-01-25T13:37:33;100603.66;;;0.26;100.00
30554;BME280;17335;50.720;7.452;2023-01-25T13:40:00;100599.22;;;0.27;100.00
30554;BME280;17335;50.720;7.452;2023-01-25T13:42:37;100591.34;;;0.25;100.00
30554;BME280;17335;50.720;7.452;2023-01-25T13:45:18;100591.44;;;0.22;100.00
30554;BME280;17335;50.720;7.452;2023-01-25T13:48:12;100579.75;;;0.03;100.00
30554;BME280;17335;50.720;7.452;2023-01-25T13:50:46;100584.84;;;0.09;100.00
30554;BME280;17335;50.720;7.452;2023-01-25T13:55:42;100578.97;;;0.27;100.00
30554;BME280;17335;50.720;7.452;2023-01-25T14:00:35;100572.06;;;0.23;100.00
30554;BME280;17335;50.720;7.452;2023-01-25T14:03:04;100568.59;;;0.21;100.00
30554;BME280;17335;50.720;7.452;2023-01-25T14:05:32;100561.41;;;0.26;100.00
30554;BME280;17335;50.720;7.452;2023-01-25T14:07:58;100560.59;;;0.24;100.00
30554;BME280;17335;50.720;7.452;2023-01-25T14:10:26;100547.31;;;0.26;100.00
30554;BME280;17335;50.720;7.452;2023-01-25T14:12:58;100541.38;;;0.19;100.00
30554;BME280;17335;50.720;7.452;2023-01-25T14:15:28;100547.66;;;0.15;100.00
30554;BME280;17335;50.720;7.452;2023-01-25T14:20:37;100554.69;;;0.16;100.00
30554;BME280;17335;50.720;7.452;2023-01-25T14:23:04;100547.16;;;0.30;100.00
30554;BME280;17335;50.720;7.452;2023-01-25T14:25:32;100549.41;;;0.16;100.00
30554;BME280;17335;50.720;7.452;2023-01-25T14:27:59;100551.25;;;0.14;100.00
30554;BME280;17335;50.720;7.452;2023-01-25T14:30:34;100540.91;;;0.06;100.00
30554;BME280;17335;50.720;7.452;2023-01-25T14:33:13;100541.63;;;0.11;100.00
30554;BME280;17335;50.720;7.452;2023-01-25T14:35:44;100547.66;;;0.15;100.00
30554;BME280;17335;50.720;7.452;2023-01-25T14:38:36;100542.19;;;0.21;100.00
30554;BME280;17335;50.720;7.452;2023-01-25T14:43:53;100527.84;;;0.30;100.00
30554;BME280;17335;50.720;7.452;2023-01-25T14:46:24;100521.16;;;0.18;100.00
30554;BME280;17335;50.720;7.452;2023-01-25T14:51:44;100522.47;;;0.05;100.00
30554;BME280;17335;50.720;7.452;2023-01-25T14:54:23;100514.44;;;0.08;100.00